Norwoodville, Iowa
Current Conditions -  °F | °C
As of 12:55 AM on Monday 22 Dec 2014 (Local Time) from KIKV Reporting Station
Light Rain Light Rain  
Wind Chill: 33°   Ceiling: 700
Heat Index: 41°   Visibility: 3mi
Dew Point: 41°   Wind: 14mph
Humidity: 100%   Direction: 160°SSE
Pressure: 29.73"   Gusts: NA
Location:  41.6142°N, 93.5543°W
Report Text: KIKV 220655Z AUTO 16012KT 3SM -RA BKN007 OVC011 05/05 A2973 RMK AO2 P0001
Loading
Personal Weather Stations






























Interactive Weather Map New forecast layout! Learn more

10-Day Weather Forecast

Advertisements
Track Severe Weather on mobile